Home   Weather   USA   Sperryville   Past weeks
Flag for USA

Past Weather in Sperryville, Virginia, USA — Yesterday and Last 2 Weeks

Currently: 63 °F. Scattered clouds. (Weather station: warren County Airport, USA). See more current weather

Past Weather in Sperryville — Graph

°F

Sperryville Temperature Yesterday

Maximum temperature yesterday: 68 °F (at 12:35 pm)
Minimum temperature yesterday: 63 °F (at 1:35 am)
Average temperature yesterday: 64 °F

High & Low Weather Summary for the Past Weeks

 TemperatureHumidityPressure
High79 °F (Apr 9, 2:55 pm)100% (Mar 30, 11:15 pm)30.18 "Hg (Mar 30, 11:15 pm)
Low-36 °F (Mar 29, 4:15 am)17% (Mar 29, 6:55 pm)29.25 "Hg (Apr 12, 1:15 am)
Average17 °F65%29.85 "Hg
* Reported Mar 28 4:15 pm — Apr 12 4:15 pm, Sperryville. Weather by CustomWeather, © 2024

Note: Actual official high and low records may vary slightly from our data, if they occured in-between our weather recording intervals... More about our weather records

Sperryville Weather History for the Previous 24 Hours

Scroll right to see more
 ConditionsComfort  
Time TempWeatherWind HumidityBarometerVisibility
4:15 pm
Fri, Apr 12
61 °FScattered clouds.22 mph48%29.55 "Hg10 mi
3:35 pm61 °FScattered clouds.21 mph45%29.55 "Hg10 mi
3:15 pm61 °FScattered clouds.22 mph48%29.55 "Hg10 mi
2:55 pm61 °FScattered clouds.17 mph48%29.55 "Hg10 mi
2:15 pm61 °FSunny.20 mph48%29.55 "Hg10 mi
1:35 pm59 °FScattered clouds.15 mph51%29.54 "Hg10 mi
1:15 pm57 °FBroken clouds.12 mph55%29.53 "Hg10 mi
12:55 pm59 °FCloudy.15 mph55%29.52 "Hg10 mi
12:35 pm57 °FCloudy.8 mph59%29.52 "Hg10 mi
12:15 pm59 °FCloudy.9 mph51%29.52 "Hg10 mi
11:55 am59 °FOvercast.14 mph51%29.51 "Hg10 mi
11:35 am59 °FPartly sunny.16 mph48%29.50 "Hg10 mi
11:15 am61 °FScattered clouds.13 mph48%29.50 "Hg10 mi
10:55 am61 °FScattered clouds.14 mph48%29.48 "Hg10 mi
10:15 am59 °FPartly sunny.13 mph48%29.48 "Hg10 mi
9:35 am55 °FMostly cloudy.16 mph59%29.48 "Hg10 mi
9:15 am55 °FMostly cloudy.15 mph59%29.46 "Hg10 mi
8:35 am55 °FMostly cloudy.8 mph59%29.45 "Hg10 mi
7:55 am57 °FOvercast.7 mph59%29.43 "Hg10 mi
7:15 am57 °FBroken clouds.10 mph67%29.40 "Hg10 mi
6:55 am55 °FBroken clouds.6 mph82%29.38 "Hg10 mi
6:35 am57 °FOvercast.9 mph77%29.37 "Hg10 mi
5:55 am57 °FMostly cloudy.8 mph88%29.34 "Hg5 mi
5:35 am59 °FOvercast.6 mph94%29.33 "Hg10 mi
4:55 am59 °FMostly cloudy.5 mph94%29.31 "Hg10 mi
4:35 am59 °FMostly cloudy.6 mph94%29.30 "Hg10 mi
3:15 am59 °FPartly cloudy.6 mph94%29.30 "Hg10 mi
2:55 am59 °FPartly cloudy.7 mph94%29.30 "Hg10 mi
2:35 am59 °FPassing clouds.3 mph94%29.29 "Hg10 mi
2:15 am59 °FMostly cloudy.3 mph94%29.29 "Hg10 mi
1:35 am63 °FOvercast.9 mph88%29.29 "Hg5 mi
1:15 am64 °FOvercast.8 mph88%29.25 "Hg5 mi
12:55 am64 °FOvercast.7 mph88%29.26 "Hg7 mi
12:35 am64 °FOvercast.10 mph88%29.28 "Hg5 mi
12:15 am64 °FOvercast.10 mph88%29.30 "Hg4 mi
11:35 pm
Thu, Apr 11
64 °FOvercast.12 mph88%29.32 "Hg7 mi
11:15 pm64 °FMostly cloudy.8 mph94%29.33 "Hg4 mi
10:55 pm66 °FOvercast.14 mph88%29.35 "Hg7 mi
10:35 pm66 °FOvercast.9 mph88%29.36 "Hg7 mi
10:15 pm66 °FOvercast.15 mph88%29.39 "Hg7 mi
9:35 pm64 °FOvercast.10 mph94%29.41 "Hg5 mi
8:55 pm66 °FOvercast.7 mph88%29.41 "Hg7 mi
8:35 pm66 °FMostly cloudy.8 mph88%29.41 "Hg10 mi
8:15 pm64 °FMostly cloudy.No wind94%29.42 "Hg7 mi
7:55 pm64 °FOvercast.5 mph94%29.43 "Hg10 mi
7:35 pm64 °FCloudy.3 mph94%29.44 "Hg5 mi
7:15 pm64 °FCloudy.5 mph94%29.46 "Hg5 mi
6:35 pm64 °FOvercast.9 mph88%29.49 "Hg10 mi
6:15 pm64 °FOvercast.12 mph88%29.50 "Hg10 mi
5:55 pm64 °FOvercast.5 mph88%29.51 "Hg10 mi
5:35 pm64 °FOvercast.6 mph88%29.52 "Hg7 mi
Weather by CustomWeather, © 2024

See weather overview